Time;durP1;ratioP1;P1;durP2;ratioP2;P2;SDS_P1;SDS_P2;PMS_P1;PMS_P2;Temp;Humidity;BMP_temperature;BMP_pressure;BME280_temperature;BME280_humidity;BME280_pressure;Samples;Min_cycle;Max_cycle;Signal;HPM_P1;HPM_P2
2021/12/28 00:02:34;;;;;;;28.15;16.67;;;;;;;7.43;100.00;99364.09;10496831;28;20029;-71
2021/12/28 00:07:35;;;;;;;35.40;17.08;;;;;;;7.50;100.00;99366.75;10501523;28;20364;-70
2021/12/28 00:12:37;;;;;;;27.35;16.90;;;;;;;7.57;100.00;99356.78;10502957;28;20048;-68
2021/12/28 00:22:57;;;;;;;34.45;16.95;;;;;;;7.56;100.00;99344.34;10502979;28;20040;-69
2021/12/28 00:27:58;;;;;;;40.00;18.08;;;;;;;7.65;100.00;99351.09;10502362;28;20036;-71
2021/12/28 00:32:58;;;;;;;32.03;15.38;;;;;;;7.70;100.00;99353.16;10517882;28;20479;-70
2021/12/28 00:37:59;;;;;;;34.05;15.10;;;;;;;7.66;100.00;99352.78;10500867;28;20490;-71
2021/12/28 00:43:00;;;;;;;23.70;14.52;;;;;;;7.64;100.00;99338.69;10500999;28;20048;-70
2021/12/28 00:48:00;;;;;;;38.95;13.90;;;;;;;7.60;100.00;99331.28;10501047;28;20464;-70
2021/12/28 00:53:01;;;;;;;35.38;13.23;;;;;;;7.50;100.00;99326.34;10500222;28;20038;-70
2021/12/28 00:58:01;;;;;;;29.40;11.45;;;;;;;7.41;100.00;99322.25;10502837;28;20036;-70
2021/12/28 01:03:02;;;;;;;13.77;9.40;;;;;;;7.36;100.00;99322.06;10483722;28;20044;-69
2021/12/28 01:08:03;;;;;;;32.55;13.40;;;;;;;7.35;100.00;99313.16;10501909;28;20052;-70
2021/12/28 01:13:04;;;;;;;29.15;11.05;;;;;;;7.29;100.00;99305.13;10500011;28;20071;-70
2021/12/28 01:18:04;;;;;;;23.08;11.00;;;;;;;7.33;100.00;99309.03;10500950;28;20480;-69
2021/12/28 01:23:06;;;;;;;37.72;13.98;;;;;;;7.34;100.00;99310.69;10501374;28;20044;-69
2021/12/28 01:28:07;;;;;;;32.83;12.07;;;;;;;7.48;100.00;99300.69;10500373;28;20338;-70
2021/12/28 01:33:08;;;;;;;33.75;11.35;;;;;;;7.51;100.00;99294.84;10501516;28;20040;-70
2021/12/28 01:38:08;;;;;;;50.75;11.70;;;;;;;7.62;100.00;99302.22;10501484;28;20361;-70
2021/12/28 01:43:17;;;;;;;33.38;10.60;;;;;;;7.74;100.00;99300.50;10498868;28;20407;-70
2021/12/28 01:48:22;;;;;;;43.10;12.32;;;;;;;7.78;100.00;99298.19;10499468;28;20056;-70
2021/12/28 01:53:22;;;;;;;29.77;10.90;;;;;;;7.87;100.00;99295.00;10498771;28;20027;-68
2021/12/28 01:58:23;;;;;;;30.65;10.98;;;;;;;7.86;100.00;99298.75;10498986;28;20032;-69
2021/12/28 02:03:24;;;;;;;24.60;8.57;;;;;;;7.93;100.00;99304.91;10498922;28;20037;-69
2021/12/28 02:08:24;;;;;;;23.05;11.57;;;;;;;8.00;100.00;99299.44;10499848;28;20032;-69
2021/12/28 02:13:25;;;;;;;28.13;10.00;;;;;;;8.03;100.00;99290.94;10500073;28;20473;-69
2021/12/28 02:18:26;;;;;;;29.20;9.18;;;;;;;8.09;100.00;99291.91;10515591;28;20048;-68
2021/12/28 02:23:27;;;;;;;53.33;11.88;;;;;;;8.13;100.00;99283.16;10498849;28;20040;-69
2021/12/28 02:28:27;;;;;;;31.17;10.38;;;;;;;8.22;100.00;99281.00;10498561;28;20376;-69
2021/12/28 02:33:27;;;;;;;24.65;8.38;;;;;;;8.26;100.00;99287.59;10480563;28;20090;-69
2021/12/28 02:38:28;;;;;;;53.45;10.77;;;;;;;8.29;100.00;99283.66;10498336;28;20574;-69
2021/12/28 02:43:29;;;;;;;31.77;6.07;;;;;;;8.26;100.00;99281.41;10499552;28;20048;-70
2021/12/28 02:48:29;;;;;;;19.67;6.93;;;;;;;8.28;100.00;99279.31;10496912;28;20128;-69
2021/12/28 02:53:30;;;;;;;20.52;9.10;;;;;;;8.31;100.00;99276.16;10498472;28;20419;-70
2021/12/28 02:58:40;;;;;;;38.50;7.95;;;;;;;8.36;100.00;99270.94;10498497;28;20095;-70
2021/12/28 03:03:41;;;;;;;25.73;8.75;;;;;;;8.33;100.00;99261.41;10498371;28;20029;-70
2021/12/28 03:08:45;;;;;;;23.73;8.05;;;;;;;8.35;100.00;99263.88;10514393;28;20439;-69
2021/12/28 03:13:47;;;;;;;36.58;9.35;;;;;;;8.34;100.00;99254.97;10496893;28;20024;-69
2021/12/28 03:18:48;;;;;;;18.77;7.13;;;;;;;8.39;100.00;99254.31;10513133;28;20082;-70
2021/12/28 03:23:48;;;;;;;32.20;9.73;;;;;;;8.36;100.00;99250.19;10496714;28;20047;-69
2021/12/28 03:28:49;;;;;;;16.98;8.02;;;;;;;8.30;100.00;99234.91;10497687;28;20127;-69
2021/12/28 03:33:51;;;;;;;25.58;8.70;;;;;;;8.34;100.00;99227.19;10497739;28;20112;-68
2021/12/28 03:38:51;;;;;;;26.38;9.52;;;;;;;8.35;100.00;99229.63;10479324;28;20148;-70
2021/12/28 03:43:53;;;;;;;36.28;8.05;;;;;;;8.32;100.00;99222.00;10504574;28;20071;-68
2021/12/28 03:48:53;;;;;;;26.95;10.07;;;;;;;8.33;100.00;99220.16;10504544;28;20119;-69
2021/12/28 03:53:54;;;;;;;21.60;10.35;;;;;;;8.32;100.00;99210.38;10504107;28;20461;-69
2021/12/28 03:58:54;;;;;;;24.30;10.27;;;;;;;8.38;100.00;99225.72;10504628;28;20391;-69
2021/12/28 04:03:55;;;;;;;26.10;8.98;;;;;;;8.40;100.00;99218.22;10504464;28;20464;-69
2021/12/28 04:08:57;;;;;;;20.45;10.65;;;;;;;8.45;100.00;99210.25;10504199;28;20037;-70
2021/12/28 04:14:05;;;;;;;41.25;10.73;;;;;;;8.50;100.00;99206.91;10504113;28;20032;-70
2021/12/28 04:19:06;;;;;;;46.65;11.57;;;;;;;8.50;100.00;99202.31;10505335;28;20048;-70
2021/12/28 04:24:06;;;;;;;34.72;10.20;;;;;;;8.50;100.00;99199.63;10504579;28;20453;-70
2021/12/28 04:29:07;;;;;;;23.02;8.13;;;;;;;8.51;100.00;99195.88;10511023;28;20037;-70
2021/12/28 04:34:07;;;;;;;36.15;10.23;;;;;;;8.56;100.00;99190.63;10509717;28;20036;-69
2021/12/28 04:39:08;;;;;;;23.48;9.10;;;;;;;8.55;100.00;99185.44;10504273;28;20115;-70
2021/12/28 04:44:11;;;;;;;31.33;10.38;;;;;;;8.58;100.00;99187.69;10501795;28;20048;-70
2021/12/28 04:49:12;;;;;;;25.30;9.02;;;;;;;8.61;100.00;99176.47;10502977;28;20052;-70
2021/12/28 04:54:13;;;;;;;38.25;10.85;;;;;;;8.54;100.00;99168.44;10502242;28;20463;-70
2021/12/28 04:59:14;;;;;;;35.10;10.10;;;;;;;8.59;100.00;99167.78;10502326;28;20041;-69
2021/12/28 05:04:14;;;;;;;22.40;9.88;;;;;;;8.57;100.00;99156.38;10502576;28;20037;-70
2021/12/28 05:09:15;;;;;;;34.83;12.23;;;;;;;8.59;100.00;99151.59;10502597;28;20033;-70
2021/12/28 05:14:17;;;;;;;33.75;12.18;;;;;;;8.64;100.00;99154.41;10502276;28;20124;-70
2021/12/28 05:19:18;;;;;;;31.48;14.27;;;;;;;8.64;100.00;99150.91;10501288;28;20047;-71
2021/12/28 05:24:18;;;;;;;26.55;11.18;;;;;;;8.71;100.00;99143.53;10502101;28;20040;-70
2021/12/28 05:29:19;;;;;;;18.95;9.85;;;;;;;8.72;100.00;99137.09;10501285;28;20078;-70
2021/12/28 05:34:20;;;;;;;23.45;12.57;;;;;;;8.74;100.00;99129.59;10501058;28;20036;-69
2021/12/28 05:39:20;;;;;;;20.55;11.52;;;;;;;8.68;100.00;99133.19;10500282;28;20040;-69
2021/12/28 05:44:20;;;;;;;14.82;10.43;;;;;;;8.72;100.00;99127.13;10500628;28;20076;-70
2021/12/28 05:49:22;;;;;;;23.50;12.60;;;;;;;8.76;100.00;99130.19;10498828;28;20031;-69
2021/12/28 05:54:23;;;;;;;22.67;12.55;;;;;;;8.81;100.00;99119.53;10499641;28;20029;-69
2021/12/28 05:59:23;;;;;;;17.45;12.05;;;;;;;8.75;100.00;99102.38;10482889;28;20464;-69
2021/12/28 06:04:23;;;;;;;18.20;11.75;;;;;;;8.78;100.00;99099.22;10500230;28;20036;-70
2021/12/28 06:09:24;;;;;;;12.20;10.77;;;;;;;8.79;100.00;99087.38;10499855;28;20059;-69
2021/12/28 06:14:24;;;;;;;15.35;10.63;;;;;;;8.77;100.00;99089.47;10500045;28;20119;-70
2021/12/28 06:19:24;;;;;;;14.77;10.38;;;;;;;8.79;100.00;99089.25;10497858;28;20036;-69
2021/12/28 06:24:25;;;;;;;14.63;11.23;;;;;;;8.78;100.00;99090.31;10497962;28;20403;-70
2021/12/28 06:29:25;;;;;;;16.73;11.68;;;;;;;8.81;100.00;99079.06;10499009;28;20135;-70
2021/12/28 06:34:26;;;;;;;23.85;13.15;;;;;;;8.83;100.00;99085.03;10498071;28;20033;-70
2021/12/28 06:39:26;;;;;;;18.70;12.98;;;;;;;8.83;100.00;99074.22;10497226;28;20036;-70
2021/12/28 06:44:26;;;;;;;17.95;11.25;;;;;;;8.87;100.00;99088.94;10480231;28;20148;-70
2021/12/28 06:49:27;;;;;;;22.88;13.32;;;;;;;8.88;100.00;99074.38;10498365;28;20193;-70
2021/12/28 06:54:27;;;;;;;30.13;13.80;;;;;;;8.99;100.00;99072.75;10496454;28;20039;-70
2021/12/28 06:59:28;;;;;;;33.65;14.32;;;;;;;9.05;100.00;99072.63;10497649;28;20033;-70
2021/12/28 07:04:28;;;;;;;20.50;12.80;;;;;;;9.04;100.00;99059.38;10497089;28;20036;-70
2021/12/28 07:09:28;;;;;;;13.20;11.80;;;;;;;9.07;100.00;99040.84;10497953;28;20044;-69
2021/12/28 07:14:29;;;;;;;18.67;11.77;;;;;;;9.02;100.00;99046.09;10497474;28;20078;-69
2021/12/28 07:19:29;;;;;;;17.38;13.85;;;;;;;9.07;100.00;99042.72;10506022;28;20116;-70
2021/12/28 07:24:30;;;;;;;17.75;11.93;;;;;;;9.05;100.00;99042.13;10506443;28;20029;-71
2021/12/28 07:29:33;;;;;;;21.98;11.30;;;;;;;9.04;100.00;99045.88;10465086;28;20048;-70
2021/12/28 07:34:33;;;;;;;17.70;13.77;;;;;;;9.08;100.00;99045.16;10505418;28;20406;-71
2021/12/28 07:39:34;;;;;;;15.15;12.88;;;;;;;9.13;100.00;99030.16;10506434;28;20138;-71
2021/12/28 07:44:35;;;;;;;14.13;11.25;;;;;;;9.14;100.00;99024.50;10504031;28;20544;-73
2021/12/28 07:49:36;;;;;;;16.70;13.32;;;;;;;9.14;100.00;99027.22;10506096;28;20090;-70
2021/12/28 07:54:36;;;;;;;20.30;14.25;;;;;;;9.10;100.00;99017.13;10505065;28;20056;-72
2021/12/28 07:59:37;;;;;;;17.85;13.32;;;;;;;9.16;100.00;99022.41;10504350;28;20108;-73
2021/12/28 08:04:37;;;;;;;11.68;10.48;;;;;;;9.15;100.00;99018.06;10505164;28;20036;-73
2021/12/28 08:09:37;;;;;;;18.48;10.35;;;;;;;9.16;100.00;99010.78;10502784;28;20130;-74
2021/12/28 08:14:38;;;;;;;14.20;10.50;;;;;;;9.21;100.00;99000.91;10504230;28;20368;-72
2021/12/28 08:19:38;;;;;;;15.75;12.07;;;;;;;9.24;100.00;98996.91;10503694;28;20032;-75
2021/12/28 08:24:39;;;;;;;19.80;12.88;;;;;;;9.22;100.00;98999.03;10504060;28;20029;-75
2021/12/28 08:29:39;;;;;;;15.70;10.75;;;;;;;9.25;100.00;98996.69;10504255;28;20372;-73
2021/12/28 08:34:39;;;;;;;14.82;8.18;;;;;;;9.28;100.00;98992.69;10504964;28;20535;-75
2021/12/28 08:39:40;;;;;;;11.45;10.27;;;;;;;9.29;100.00;98995.16;10502901;28;20040;-73
2021/12/28 08:44:40;;;;;;;8.30;7.50;;;;;;;9.31;100.00;98997.63;10503514;28;20078;-74
2021/12/28 08:49:41;;;;;;;7.60;6.93;;;;;;;9.37;100.00;98985.88;10502851;28;20357;-75
2021/12/28 08:54:41;;;;;;;13.25;9.48;;;;;;;9.38;100.00;98981.28;10502820;28;20106;-76
2021/12/28 08:59:41;;;;;;;14.73;10.05;;;;;;;9.46;100.00;98965.53;10504698;28;20445;-72
2021/12/28 09:04:43;;;;;;;11.77;9.50;;;;;;;9.50;100.00;98963.19;10501889;28;20033;-72
2021/12/28 09:09:44;;;;;;;9.52;8.63;;;;;;;9.55;100.00;98961.41;10503003;28;20123;-70
2021/12/28 09:14:45;;;;;;;12.85;10.90;;;;;;;9.49;100.00;98950.75;10501656;28;20023;-71
2021/12/28 09:19:45;;;;;;;11.48;8.43;;;;;;;9.49;100.00;98946.16;10483692;28;20448;-69
2021/12/28 09:24:45;;;;;;;10.00;8.98;;;;;;;9.45;100.00;98950.41;10501409;28;20040;-71
2021/12/28 09:29:46;;;;;;;10.43;7.65;;;;;;;9.51;100.00;98938.63;10501735;28;20388;-70
2021/12/28 09:34:48;;;;;;;14.80;7.70;;;;;;;9.46;100.00;98935.81;10501663;28;20029;-75
2021/12/28 09:39:49;;;;;;;20.60;7.55;;;;;;;9.51;100.00;98935.13;10516137;28;20021;-75
2021/12/28 09:44:51;;;;;;;10.20;7.22;;;;;;;9.48;100.00;98936.41;10483552;28;20135;-72
2021/12/28 09:49:51;;;;;;;9.45;7.82;;;;;;;9.55;100.00;98926.28;10498899;28;20101;-71
2021/12/28 09:54:51;;;;;;;5.68;5.22;;;;;;;9.51;100.00;98910.81;10500138;28;20166;-73
2021/12/28 09:59:52;;;;;;;6.93;6.30;;;;;;;9.57;100.00;98919.81;10499860;28;20036;-72
2021/12/28 10:05:04;;;;;;;10.00;6.82;;;;;;;9.64;100.00;98915.13;10499064;28;20472;-70
2021/12/28 10:10:06;;;;;;;10.18;4.85;;;;;;;9.54;100.00;98908.44;10499964;28;20432;-71
2021/12/28 10:15:09;;;;;;;7.10;4.70;;;;;;;9.61;100.00;98905.59;10498996;28;20053;-73
2021/12/28 10:20:11;;;;;;;4.03;3.10;;;;;;;9.69;100.00;98907.91;10498483;28;20035;-74
2021/12/28 10:25:14;;;;;;;2.70;2.50;;;;;;;9.80;100.00;98881.91;10498364;28;20036;-74
2021/12/28 10:30:23;;;;;;;4.32;3.92;;;;;;;9.67;100.00;98893.00;10500489;28;20056;-75
2021/12/28 10:35:28;;;;;;;5.22;3.40;;;;;;;9.58;100.00;98884.47;10499508;28;20029;-75
2021/12/28 10:40:31;;;;;;;2.70;2.55;;;;;;;9.58;100.00;98886.34;10501898;28;20036;-75
2021/12/28 10:45:38;;;;;;;2.15;1.98;;;;;;;9.53;100.00;98873.53;10482088;28;20387;-74
2021/12/28 10:50:44;;;;;;;3.00;2.38;;;;;;;9.60;100.00;98868.00;10500909;28;20025;-76
2021/12/28 10:55:46;;;;;;;5.82;2.88;;;;;;;9.51;100.00;98872.97;10499433;28;20032;-73
2021/12/28 11:00:47;;;;;;;5.03;2.22;;;;;;;9.51;100.00;98871.09;10499289;28;20452;-75
2021/12/28 11:05:48;;;;;;;5.68;2.42;;;;;;;9.40;100.00;98855.72;10504326;28;20036;-75
2021/12/28 11:10:50;;;;;;;10.77;3.85;;;;;;;9.42;100.00;98850.09;10499367;28;20028;-77
2021/12/28 11:15:50;;;;;;;4.22;1.83;;;;;;;9.44;100.00;98850.66;10497594;28;20039;-73
2021/12/28 11:20:53;;;;;;;2.38;1.83;;;;;;;9.35;100.00;98841.28;10497604;28;20029;-71
2021/12/28 11:26:24;;;;;;;2.33;1.88;;;;;;;9.32;100.00;98835.34;10495840;28;20372;-73
2021/12/28 11:31:27;;;;;;;3.08;2.25;;;;;;;9.26;100.00;98828.19;10496841;28;20047;-73
2021/12/28 11:36:34;;;;;;;3.03;2.83;;;;;;;9.21;100.00;98846.97;10497915;28;20342;-71
2021/12/28 11:41:35;;;;;;;7.53;3.20;;;;;;;9.06;100.00;98844.81;10498097;28;20027;-74
2021/12/28 11:46:35;;;;;;;4.82;2.05;;;;;;;9.00;100.00;98855.72;10479136;28;20290;-72
2021/12/28 11:51:35;;;;;;;11.65;3.50;;;;;;;9.01;100.00;98862.75;10495196;28;20033;-74
2021/12/28 11:56:38;;;;;;;13.25;4.07;;;;;;;8.98;100.00;98857.84;10495955;28;20028;-75
2021/12/28 12:01:40;;;;;;;23.75;5.35;;;;;;;8.87;100.00;98854.09;10499814;28;20104;-73
2021/12/28 12:07:05;;;;;;;13.98;4.03;;;;;;;8.95;100.00;98859.13;10506447;28;20032;-75
2021/12/28 12:12:13;;;;;;;18.60;5.93;;;;;;;9.13;100.00;98854.66;10506106;28;20028;-73
2021/12/28 12:17:26;;;;;;;15.20;6.22;;;;;;;9.32;100.00;98862.34;10504037;28;20029;-74
2021/12/28 12:22:29;;;;;;;30.90;7.80;;;;;;;9.72;100.00;98857.97;10503637;28;20029;-73
2021/12/28 12:27:38;;;;;;;28.02;8.65;;;;;;;10.91;100.00;98838.81;10503648;28;20375;-75
2021/12/28 12:33:06;;;;;;;49.13;9.02;;;;;;;11.16;100.00;98848.31;10503020;28;20372;-75
2021/12/28 12:38:09;;;;;;;24.98;9.63;;;;;;;11.22;100.00;98844.63;10502095;28;20044;-75
2021/12/28 12:43:11;;;;;;;23.17;8.50;;;;;;;11.14;100.00;98845.06;10502750;28;20467;-74
2021/12/28 12:48:28;;;;;;;32.00;10.18;;;;;;;11.02;100.00;98849.78;10503749;28;20421;-72
2021/12/28 12:54:01;;;;;;;29.25;10.88;;;;;;;9.99;100.00;98861.72;10501616;28;20395;-70
2021/12/28 12:59:16;;;;;;;28.55;8.70;;;;;;;9.50;100.00;98871.31;10501298;28;20043;-71
2021/12/28 13:04:26;;;;;;;59.80;11.35;;;;;;;9.10;100.00;98891.03;10503465;28;20028;-71
2021/12/28 13:09:27;;;;;;;21.02;5.63;;;;;;;8.82;100.00;98900.69;10501780;28;20036;-71
2021/12/28 13:14:28;;;;;;;30.98;8.20;;;;;;;8.51;100.00;98885.66;10498916;28;20016;-73
2021/12/28 13:19:28;;;;;;;35.50;7.85;;;;;;;8.21;100.00;98876.81;10500467;28;20040;-72
2021/12/28 13:24:29;;;;;;;35.10;7.40;;;;;;;8.29;100.00;98871.88;10499146;28;20452;-72
2021/12/28 13:29:34;;;;;;;35.80;8.55;;;;;;;8.30;100.00;98884.31;10482946;28;20419;-71
2021/12/28 13:34:46;;;;;;;33.00;8.13;;;;;;;8.35;100.00;98872.81;10501206;28;20028;-75
2021/12/28 13:39:46;;;;;;;29.50;8.88;;;;;;;8.34;100.00;98876.59;10515183;28;20495;-70
2021/12/28 13:44:47;;;;;;;47.97;9.38;;;;;;;8.43;100.00;98877.91;10500306;28;20040;-71
2021/12/28 13:50:11;;;;;;;43.42;9.88;;;;;;;8.63;100.00;98882.16;10499442;28;20040;-70
2021/12/28 13:55:12;;;;;;;31.52;9.98;;;;;;;8.63;100.00;98887.53;10483246;28;20035;-71
2021/12/28 14:00:13;;;;;;;27.30;6.65;;;;;;;8.53;100.00;98882.72;10499908;28;20360;-72
2021/12/28 14:05:14;;;;;;;11.52;5.38;;;;;;;8.31;100.00;98871.66;10498359;28;20102;-73
2021/12/28 14:10:14;;;;;;;17.77;5.35;;;;;;;8.26;100.00;98882.31;10499648;28;20340;-74
2021/12/28 14:15:15;;;;;;;14.93;5.22;;;;;;;8.25;100.00;98889.56;10514837;28;20036;-70
2021/12/28 14:20:15;;;;;;;9.18;4.30;;;;;;;8.21;100.00;98893.78;10500229;28;20403;-73
2021/12/28 14:25:15;;;;;;;21.92;6.05;;;;;;;8.14;100.00;98890.38;10498794;28;20394;-72
2021/12/28 14:30:17;;;;;;;15.90;4.90;;;;;;;8.08;100.00;98897.50;10500363;28;20127;-72
2021/12/28 14:35:19;;;;;;;31.15;7.82;;;;;;;8.13;100.00;98903.00;10498285;28;20033;-70
2021/12/28 14:40:21;;;;;;;9.63;4.53;;;;;;;8.13;100.00;98905.72;10498035;28;20025;-71
2021/12/28 14:45:26;;;;;;;15.88;5.30;;;;;;;8.20;100.00;98908.34;10497207;28;20044;-73
2021/12/28 14:50:28;;;;;;;21.85;5.95;;;;;;;8.10;100.00;98917.00;10498986;28;20036;-73
2021/12/28 14:55:36;;;;;;;22.45;4.85;;;;;;;8.07;100.00;98916.59;10498142;28;20039;-74
2021/12/28 15:00:47;;;;;;;22.20;5.90;;;;;;;8.08;100.00;98937.94;10481874;28;20063;-72
2021/12/28 15:05:57;;;;;;;20.38;6.45;;;;;;;8.06;100.00;98937.34;10513613;28;20508;-72
2021/12/28 15:10:57;;;;;;;14.30;3.45;;;;;;;8.06;100.00;98933.84;10497713;28;20388;-72
2021/12/28 15:15:58;;;;;;;16.30;4.18;;;;;;;8.11;100.00;98942.88;10497967;28;20029;-71
2021/12/28 15:20:58;;;;;;;34.15;5.43;;;;;;;8.16;100.00;98953.78;10496309;28;20082;-73
2021/12/28 15:25:59;;;;;;;8.55;3.08;;;;;;;8.19;100.00;98973.25;10498194;28;20517;-73
2021/12/28 15:30:59;;;;;;;9.52;4.28;;;;;;;8.15;100.00;98979.09;10497196;28;20044;-73
2021/12/28 15:36:01;;;;;;;7.43;2.45;;;;;;;8.12;100.00;98976.06;10497625;28;20581;-73
2021/12/28 15:41:02;;;;;;;6.47;2.80;;;;;;;8.10;100.00;98986.22;10503565;28;20044;-71
2021/12/28 15:46:07;;;;;;;14.57;4.03;;;;;;;8.10;100.00;98999.72;10507699;28;20441;-71
2021/12/28 15:51:08;;;;;;;7.40;3.17;;;;;;;8.08;100.00;99010.72;10507203;28;20040;-72
2021/12/28 15:56:09;;;;;;;24.88;4.35;;;;;;;8.13;100.00;99005.47;10504359;28;20476;-72
2021/12/28 16:01:09;;;;;;;13.85;4.05;;;;;;;8.20;100.00;99018.88;10504937;28;20063;-72
2021/12/28 16:06:11;;;;;;;10.57;5.80;;;;;;;8.20;100.00;99016.19;10503359;28;20037;-72
2021/12/28 16:11:12;;;;;;;14.20;4.80;;;;;;;8.20;100.00;99021.56;10520504;28;20036;-71
2021/12/28 16:16:14;;;;;;;12.30;3.63;;;;;;;8.14;100.00;99042.19;10520324;28;20056;-72
2021/12/28 16:21:15;;;;;;;9.95;4.88;;;;;;;8.15;100.00;99065.38;10502768;28;20387;-70
2021/12/28 16:26:16;;;;;;;14.88;3.95;;;;;;;8.14;100.00;99057.53;10503945;28;20080;-72
2021/12/28 16:31:16;;;;;;;7.03;2.97;;;;;;;8.20;100.00;99066.56;10501783;28;20044;-72
2021/12/28 16:36:17;;;;;;;13.32;4.32;;;;;;;8.18;100.00;99085.69;10503477;28;20028;-72
2021/12/28 16:41:19;;;;;;;11.23;3.97;;;;;;;8.23;100.00;99091.22;10503345;28;20037;-71
2021/12/28 16:46:19;;;;;;;16.75;5.03;;;;;;;8.27;100.00;99107.78;10504543;28;20060;-72
2021/12/28 16:51:20;;;;;;;9.75;4.15;;;;;;;8.28;100.00;99112.13;10518864;28;20043;-72
2021/12/28 16:56:21;;;;;;;20.60;5.72;;;;;;;8.30;100.00;99118.13;10501565;28;20056;-73
2021/12/28 17:01:23;;;;;;;11.98;4.05;;;;;;;8.31;100.00;99128.66;10503402;28;20482;-72
2021/12/28 17:06:23;;;;;;;9.95;4.30;;;;;;;8.35;100.00;99132.53;10502338;28;20032;-73
2021/12/28 17:11:24;;;;;;;8.52;5.28;;;;;;;8.39;100.00;99157.22;10500455;28;20059;-72
2021/12/28 17:16:25;;;;;;;31.92;6.78;;;;;;;8.44;100.00;99165.47;10517918;28;20032;-72
2021/12/28 17:21:25;;;;;;;24.13;6.25;;;;;;;8.49;100.00;99170.19;10484300;28;20094;-72
2021/12/28 17:26:26;;;;;;;9.32;4.78;;;;;;;8.53;100.00;99174.91;10501980;28;20476;-73
2021/12/28 17:31:27;;;;;;;9.93;6.28;;;;;;;8.54;100.00;99184.63;10503242;28;20459;-73
2021/12/28 17:36:27;;;;;;;21.10;6.80;;;;;;;8.60;100.00;99202.63;10516981;28;20533;-72
2021/12/28 17:41:28;;;;;;;9.48;4.03;;;;;;;8.69;100.00;99221.22;10501887;28;20094;-72
2021/12/28 17:46:28;;;;;;;4.15;3.17;;;;;;;8.73;100.00;99235.91;10516168;28;20045;-72
2021/12/28 17:51:30;;;;;;;14.40;4.22;;;;;;;8.78;100.00;99242.25;10501318;28;20075;-73
2021/12/28 17:56:30;;;;;;;6.03;2.90;;;;;;;8.82;100.00;99254.25;10499289;28;20030;-72
2021/12/28 18:01:30;;;;;;;9.00;4.68;;;;;;;8.79;100.00;99276.28;10498901;28;20128;-73
2021/12/28 18:06:31;;;;;;;10.23;4.68;;;;;;;8.82;100.00;99293.91;10499379;28;20060;-72
2021/12/28 18:11:31;;;;;;;12.45;4.53;;;;;;;8.79;100.00;99299.75;10499742;28;20044;-72
2021/12/28 18:16:32;;;;;;;17.15;4.90;;;;;;;8.79;100.00;99314.09;10500456;28;20193;-72
2021/12/28 18:21:32;;;;;;;20.73;4.32;;;;;;;8.79;100.00;99341.06;10515098;28;20036;-73
2021/12/28 18:26:33;;;;;;;21.63;4.53;;;;;;;8.84;100.00;99380.91;10514709;28;20040;-73
2021/12/28 18:31:34;;;;;;;10.27;4.63;;;;;;;8.84;100.00;99397.09;10514526;28;20040;-74
2021/12/28 18:36:35;;;;;;;13.43;3.92;;;;;;;8.84;100.00;99402.50;10498628;28;20043;-73
2021/12/28 18:41:35;;;;;;;10.82;4.80;;;;;;;8.81;100.00;99419.13;10497355;28;20457;-73
2021/12/28 18:46:35;;;;;;;7.38;3.40;;;;;;;8.82;100.00;99427.00;10498414;28;20106;-73
2021/12/28 18:51:36;;;;;;;12.55;4.70;;;;;;;8.86;100.00;99440.88;10514418;28;20067;-72
2021/12/28 18:56:37;;;;;;;15.50;5.05;;;;;;;8.86;100.00;99465.16;10498286;28;20037;-72
2021/12/28 19:01:38;;;;;;;4.30;3.30;;;;;;;8.88;100.00;99489.25;10498755;28;20037;-71
2021/12/28 19:06:38;;;;;;;14.93;3.70;;;;;;;8.88;100.00;99498.19;10498830;28;20047;-72
2021/12/28 19:11:39;;;;;;;13.05;4.90;;;;;;;8.87;100.00;99503.78;10496201;28;20372;-72
2021/12/28 19:16:39;;;;;;;21.17;6.13;;;;;;;8.88;100.00;99517.06;10497592;28;20041;-72
2021/12/28 19:21:40;;;;;;;9.40;5.00;;;;;;;8.84;100.00;99537.47;10497614;28;20064;-73
2021/12/28 19:26:41;;;;;;;12.80;2.92;;;;;;;8.84;100.00;99538.28;10496537;28;20081;-72
2021/12/28 19:31:41;;;;;;;10.27;4.35;;;;;;;8.84;100.00;99561.75;10497978;28;20029;-73
2021/12/28 19:36:41;;;;;;;15.07;4.85;;;;;;;8.85;100.00;99596.63;10496645;28;20349;-71
2021/12/28 19:41:43;;;;;;;15.65;5.88;;;;;;;8.83;100.00;99611.38;10497694;28;20064;-73
2021/12/28 19:46:43;;;;;;;11.95;6.63;;;;;;;8.75;100.00;99611.66;10501309;28;20053;-73
2021/12/28 19:51:44;;;;;;;24.50;6.95;;;;;;;8.76;100.00;99627.63;10500181;28;20098;-74
2021/12/28 19:56:50;;;;;;;17.70;4.95;;;;;;;8.80;100.00;99644.19;10513044;28;20471;-72
2021/12/28 20:01:50;;;;;;;6.03;4.67;;;;;;;8.77;100.00;99652.72;10512953;28;20040;-72
2021/12/28 20:06:50;;;;;;;20.80;5.85;;;;;;;8.78;100.00;99657.94;10497836;28;20036;-72
2021/12/28 20:11:51;;;;;;;6.47;4.85;;;;;;;8.76;100.00;99673.50;10498239;28;20029;-72
2021/12/28 20:16:51;;;;;;;17.08;5.82;;;;;;;8.80;100.00;99682.00;10496809;28;20028;-73
2021/12/28 20:21:52;;;;;;;16.42;5.45;;;;;;;8.82;100.00;99688.84;10497179;28;20039;-73
2021/12/28 20:26:52;;;;;;;16.10;5.38;;;;;;;8.83;100.00;99695.06;10503364;28;20044;-72
2021/12/28 20:31:53;;;;;;;18.27;6.30;;;;;;;8.85;100.00;99717.28;10485945;28;20067;-73
2021/12/28 20:36:53;;;;;;;20.20;10.15;;;;;;;8.81;100.00;99722.28;10503324;28;20064;-73
2021/12/28 20:41:54;;;;;;;29.58;9.38;;;;;;;8.88;100.00;99743.84;10503502;28;20540;-73
2021/12/28 20:46:54;;;;;;;18.38;5.75;;;;;;;8.86;100.00;99748.63;10518742;28;20094;-73
2021/12/28 20:51:54;;;;;;;36.13;6.65;;;;;;;8.85;100.00;99752.38;10504676;28;20437;-71
2021/12/28 20:56:55;;;;;;;16.42;5.43;;;;;;;8.82;100.00;99779.78;10503554;28;20071;-72
2021/12/28 21:01:55;;;;;;;22.08;6.15;;;;;;;8.82;100.00;99794.13;10485284;28;20611;-73
2021/12/28 21:06:57;;;;;;;13.43;5.95;;;;;;;8.82;100.00;99799.50;10485016;28;20494;-72
2021/12/28 21:11:58;;;;;;;9.07;3.65;;;;;;;8.81;100.00;99829.44;10501908;28;20430;-72
2021/12/28 21:16:58;;;;;;;16.92;5.35;;;;;;;8.80;100.00;99830.47;10517425;28;20037;-72
2021/12/28 21:21:59;;;;;;;10.07;5.07;;;;;;;8.82;100.00;99841.88;10516953;28;20111;-71
2021/12/28 21:27:00;;;;;;;28.25;6.82;;;;;;;8.78;100.00;99859.56;10500928;28;20047;-72
2021/12/28 21:32:01;;;;;;;17.08;4.85;;;;;;;8.76;100.00;99870.53;10501403;28;20545;-73
2021/12/28 21:37:01;;;;;;;19.25;5.78;;;;;;;8.79;100.00;99882.78;10499521;28;20033;-72
2021/12/28 21:42:02;;;;;;;26.23;7.07;;;;;;;8.79;100.00;99899.00;10500887;28;20040;-73
2021/12/28 21:47:06;;;;;;;19.05;5.00;;;;;;;8.76;100.00;99907.50;10499778;28;20056;-73
2021/12/28 21:52:07;;;;;;;8.55;4.50;;;;;;;8.78;100.00;99905.44;10515490;28;20109;-73
2021/12/28 21:57:09;;;;;;;10.25;5.35;;;;;;;8.77;100.00;99928.88;10500178;28;20093;-71
2021/12/28 22:02:10;;;;;;;10.13;4.47;;;;;;;8.77;100.00;99939.69;10499491;28;20407;-73
2021/12/28 22:07:12;;;;;;;12.63;5.70;;;;;;;8.81;100.00;99967.94;10500275;28;20036;-72
2021/12/28 22:12:14;;;;;;;16.42;8.02;;;;;;;8.82;100.00;99971.47;10499676;28;20029;-72
2021/12/28 22:17:15;;;;;;;18.95;6.43;;;;;;;8.85;100.00;99974.56;10498799;28;20464;-75
2021/12/28 22:22:15;;;;;;;9.27;5.53;;;;;;;8.86;100.00;99980.78;10498309;28;20056;-72
2021/12/28 22:27:16;;;;;;;17.05;6.05;;;;;;;8.84;100.00;99986.41;10498626;28;20106;-73
2021/12/28 22:32:19;;;;;;;18.45;7.47;;;;;;;8.85;100.00;99996.16;10481507;28;20072;-73
2021/12/28 22:37:19;;;;;;;25.02;6.10;;;;;;;8.87;100.00;100011.31;10499128;28;20028;-74
2021/12/28 22:42:20;;;;;;;13.50;7.38;;;;;;;8.89;100.00;100010.06;10498612;28;20059;-72
2021/12/28 22:47:20;;;;;;;20.98;6.55;;;;;;;8.91;100.00;100008.00;10498281;28;20074;-73
2021/12/28 22:52:20;;;;;;;14.32;8.13;;;;;;;8.91;100.00;100008.00;10498256;28;20071;-73
2021/12/28 22:57:21;;;;;;;9.43;5.70;;;;;;;8.93;100.00;100022.13;10499150;28;20373;-73
2021/12/28 23:02:21;;;;;;;21.67;6.90;;;;;;;8.92;100.00;100035.84;10499232;28;20036;-73
2021/12/28 23:07:24;;;;;;;18.38;6.60;;;;;;;8.90;100.00;100033.31;10499765;28;20054;-71
2021/12/28 23:12:24;;;;;;;14.02;5.05;;;;;;;8.93;100.00;100054.50;10499493;28;20032;-73